createdAt,value
2022-08-31T00:00:33.703Z,20.83
2022-08-31T00:01:33.698Z,20.83
2022-08-31T00:02:33.709Z,20.83
2022-08-31T00:03:33.674Z,20.85
2022-08-31T00:04:33.688Z,20.89
2022-08-31T00:05:33.632Z,20.88
2022-08-31T00:06:33.633Z,20.88
2022-08-31T00:07:33.608Z,20.88
2022-08-31T00:08:33.635Z,20.86
2022-08-31T00:09:33.582Z,20.86
2022-08-31T00:10:36.791Z,20.85
2022-08-31T00:11:33.582Z,20.83
2022-08-31T00:12:33.545Z,20.86
2022-08-31T00:13:33.559Z,20.85
2022-08-31T00:14:33.535Z,20.85
2022-08-31T00:15:33.511Z,20.85
2022-08-31T00:16:33.527Z,20.86
2022-08-31T00:17:33.506Z,20.88
2022-08-31T00:18:33.479Z,20.88
2022-08-31T00:19:33.448Z,20.88
2022-08-31T00:20:34.767Z,20.89
2022-08-31T00:21:33.425Z,20.88
2022-08-31T00:22:33.422Z,20.89
2022-08-31T00:23:33.414Z,20.89
2022-08-31T00:24:33.377Z,20.89
2022-08-31T00:25:33.368Z,20.90
2022-08-31T00:26:33.355Z,20.90
2022-08-31T00:27:33.342Z,20.88
2022-08-31T00:28:33.343Z,20.88
2022-08-31T00:29:33.314Z,20.83
2022-08-31T00:30:33.298Z,20.82
2022-08-31T00:31:33.346Z,20.75
2022-08-31T00:32:33.272Z,20.68
2022-08-31T00:33:33.292Z,20.61
2022-08-31T00:34:33.242Z,20.52
2022-08-31T00:35:33.253Z,20.37
2022-08-31T00:36:33.229Z,20.25
2022-08-31T00:37:33.211Z,20.12
2022-08-31T00:38:33.227Z,20.05
2022-08-31T00:39:33.184Z,19.94
2022-08-31T00:40:33.242Z,19.87
2022-08-31T00:41:33.163Z,19.82
2022-08-31T00:42:33.155Z,19.74
2022-08-31T00:43:33.148Z,19.70
2022-08-31T00:44:33.111Z,19.64
2022-08-31T00:45:33.121Z,19.60
2022-08-31T00:46:33.089Z,19.54
2022-08-31T00:47:33.077Z,19.53
2022-08-31T00:48:33.085Z,19.52
2022-08-31T00:49:33.048Z,19.49
2022-08-31T00:50:33.044Z,19.45
2022-08-31T00:51:33.026Z,19.39
2022-08-31T00:52:33.396Z,19.37
2022-08-31T00:53:33.010Z,19.32
2022-08-31T00:54:32.978Z,19.24
2022-08-31T00:55:32.970Z,19.19
2022-08-31T00:56:32.955Z,19.16
2022-08-31T00:57:34.477Z,19.09
2022-08-31T00:58:32.953Z,19.07
2022-08-31T00:59:32.928Z,19.05
2022-08-31T01:00:32.906Z,18.98
2022-08-31T01:01:32.923Z,18.98
2022-08-31T01:02:32.916Z,18.94
2022-08-31T01:03:32.879Z,18.94
2022-08-31T01:04:32.846Z,18.93
2022-08-31T01:05:32.837Z,18.93
2022-08-31T01:06:32.821Z,18.93
2022-08-31T01:07:32.813Z,18.93
2022-08-31T01:08:32.813Z,18.93
2022-08-31T01:09:32.782Z,18.89
2022-08-31T01:10:32.765Z,18.88
2022-08-31T01:11:32.757Z,18.86
2022-08-31T01:12:32.740Z,18.86
2022-08-31T01:13:32.756Z,18.83
2022-08-31T01:14:32.709Z,18.82
2022-08-31T01:15:32.701Z,18.78
2022-08-31T01:16:32.733Z,18.76
2022-08-31T01:17:32.676Z,18.71
2022-08-31T01:18:32.674Z,18.68
2022-08-31T01:19:32.649Z,18.67
2022-08-31T01:20:32.629Z,18.64
2022-08-31T01:21:32.622Z,18.64
2022-08-31T01:22:32.602Z,18.63
2022-08-31T01:23:32.627Z,18.60
2022-08-31T01:24:32.578Z,18.60
2022-08-31T01:25:33.799Z,18.60
2022-08-31T01:26:32.554Z,18.57
2022-08-31T01:27:32.540Z,18.58
2022-08-31T01:28:32.544Z,18.60
2022-08-31T01:29:32.513Z,18.60
2022-08-31T01:30:32.496Z,18.60
2022-08-31T01:31:32.534Z,18.60
2022-08-31T01:32:32.472Z,18.60
2022-08-31T01:33:32.481Z,18.60
2022-08-31T01:34:32.443Z,18.58
2022-08-31T01:35:32.454Z,18.56
2022-08-31T01:36:32.416Z,18.52
2022-08-31T01:37:32.415Z,18.49
2022-08-31T01:38:32.403Z,18.43
2022-08-31T01:39:32.380Z,18.43
2022-08-31T01:40:32.400Z,18.42
2022-08-31T01:41:32.358Z,18.41
2022-08-31T01:42:34.492Z,18.41
2022-08-31T01:43:32.348Z,18.39
2022-08-31T01:44:32.317Z,18.38
2022-08-31T01:45:32.305Z,18.38
2022-08-31T01:46:32.346Z,18.34
2022-08-31T01:47:32.274Z,18.38
2022-08-31T01:48:32.267Z,18.36
2022-08-31T01:49:32.246Z,18.38
2022-08-31T01:50:32.228Z,18.34
2022-08-31T01:51:32.241Z,18.33
2022-08-31T01:52:32.220Z,18.30
2022-08-31T01:53:32.217Z,18.28
2022-08-31T01:54:32.176Z,18.27
2022-08-31T01:55:32.163Z,18.27
2022-08-31T01:56:32.151Z,18.24
2022-08-31T01:57:34.256Z,18.20
2022-08-31T01:58:32.144Z,18.15
2022-08-31T01:59:32.115Z,18.13
2022-08-31T02:00:32.136Z,18.12
2022-08-31T02:01:33.596Z,18.09
2022-08-31T02:02:32.213Z,18.09
2022-08-31T02:03:32.108Z,18.05
2022-08-31T02:04:32.056Z,18.03
2022-08-31T02:05:32.046Z,18.01
2022-08-31T02:06:32.023Z,18.01
2022-08-31T02:07:32.006Z,17.97
2022-08-31T02:08:32.004Z,17.97
2022-08-31T02:09:31.981Z,17.93
2022-08-31T02:10:31.974Z,17.93
2022-08-31T02:11:31.958Z,17.91
2022-08-31T02:12:31.957Z,17.91
2022-08-31T02:13:31.972Z,17.88
2022-08-31T02:14:31.903Z,17.87
2022-08-31T02:15:31.905Z,17.90
2022-08-31T02:16:31.926Z,17.88
2022-08-31T02:17:31.874Z,17.87
2022-08-31T02:18:31.875Z,17.87
2022-08-31T02:19:31.847Z,17.86
2022-08-31T02:20:31.827Z,17.86
2022-08-31T02:21:31.821Z,17.88
2022-08-31T02:22:31.799Z,17.87
2022-08-31T02:23:31.810Z,17.83
2022-08-31T02:24:31.787Z,17.86
2022-08-31T02:25:31.764Z,17.86
2022-08-31T02:26:31.745Z,17.87
2022-08-31T02:27:31.737Z,17.88
2022-08-31T02:28:31.733Z,17.84
2022-08-31T02:29:31.710Z,17.81
2022-08-31T02:30:31.699Z,17.78
2022-08-31T02:31:31.743Z,17.75
2022-08-31T02:32:31.708Z,17.73
2022-08-31T02:33:31.670Z,17.75
2022-08-31T02:34:31.635Z,17.76
2022-08-31T02:35:31.625Z,17.76
2022-08-31T02:36:31.608Z,17.75
2022-08-31T02:37:31.601Z,17.76
2022-08-31T02:38:31.600Z,17.76
2022-08-31T02:39:31.571Z,17.76
2022-08-31T02:40:31.600Z,17.76
2022-08-31T02:41:31.547Z,17.79
2022-08-31T02:42:40.825Z,17.79
2022-08-31T02:43:31.593Z,17.78
2022-08-31T02:44:31.512Z,17.76
2022-08-31T02:45:31.530Z,17.78
2022-08-31T02:46:31.569Z,17.78
2022-08-31T02:47:31.469Z,17.81
2022-08-31T02:48:31.468Z,17.81
2022-08-31T02:49:31.444Z,17.84
2022-08-31T02:50:31.432Z,17.84
2022-08-31T02:51:31.437Z,17.83
2022-08-31T02:52:31.391Z,17.84
2022-08-31T02:53:31.402Z,17.81
2022-08-31T02:54:31.409Z,17.79
2022-08-31T02:55:31.368Z,17.76
2022-08-31T02:56:31.359Z,17.76
2022-08-31T02:57:31.324Z,17.72
2022-08-31T02:58:31.363Z,17.71
2022-08-31T02:59:31.295Z,17.69
2022-08-31T03:00:31.337Z,17.69
2022-08-31T03:01:31.309Z,17.68
2022-08-31T03:02:31.638Z,17.63
2022-08-31T03:03:31.272Z,17.63
2022-08-31T03:04:31.292Z,17.59
2022-08-31T03:05:31.218Z,17.65
2022-08-31T03:06:31.220Z,17.65
2022-08-31T03:07:31.191Z,17.63
2022-08-31T03:08:31.324Z,17.65
2022-08-31T03:09:31.177Z,17.69
2022-08-31T03:10:31.164Z,17.71
2022-08-31T03:11:31.157Z,17.72
2022-08-31T03:12:31.113Z,17.72
2022-08-31T03:13:31.133Z,17.73
2022-08-31T03:14:31.108Z,17.75
2022-08-31T03:15:31.146Z,17.75
2022-08-31T03:16:31.069Z,17.75
2022-08-31T03:17:31.056Z,17.73
2022-08-31T03:18:31.057Z,17.75
2022-08-31T03:19:31.022Z,17.71
2022-08-31T03:20:31.014Z,17.69
2022-08-31T03:21:30.996Z,17.68
2022-08-31T03:22:30.974Z,17.63
2022-08-31T03:23:30.983Z,17.66
2022-08-31T03:24:30.969Z,17.65
2022-08-31T03:25:30.959Z,17.63
2022-08-31T03:26:30.955Z,17.59
2022-08-31T03:27:30.939Z,17.57
2022-08-31T03:28:30.918Z,17.57
2022-08-31T03:29:30.898Z,17.62
2022-08-31T03:30:31.406Z,17.56
2022-08-31T03:31:30.928Z,17.49
2022-08-31T03:32:30.868Z,17.45
2022-08-31T03:33:30.854Z,17.43
2022-08-31T03:34:30.827Z,17.41
2022-08-31T03:35:30.832Z,17.38
2022-08-31T03:36:30.792Z,17.37
2022-08-31T03:37:30.780Z,17.31
2022-08-31T03:38:30.777Z,17.31
2022-08-31T03:39:30.752Z,17.30
2022-08-31T03:40:30.812Z,17.27
2022-08-31T03:41:30.729Z,17.27
2022-08-31T03:42:32.200Z,17.24
2022-08-31T03:43:30.715Z,17.22
2022-08-31T03:44:30.712Z,17.22
2022-08-31T03:45:30.673Z,17.19
2022-08-31T03:46:30.743Z,17.17
2022-08-31T03:47:31.064Z,17.17
2022-08-31T03:48:30.677Z,17.16
2022-08-31T03:49:30.614Z,17.17
2022-08-31T03:50:30.601Z,17.17
2022-08-31T03:51:30.591Z,17.17
2022-08-31T03:52:30.574Z,17.17
2022-08-31T03:53:30.579Z,17.16
2022-08-31T03:54:30.572Z,17.13
2022-08-31T03:55:30.535Z,17.13
2022-08-31T03:56:30.515Z,17.13
2022-08-31T03:57:30.505Z,17.12
2022-08-31T03:58:30.498Z,17.10
2022-08-31T03:59:30.481Z,17.12
2022-08-31T04:00:30.460Z,17.10
2022-08-31T04:01:30.535Z,17.12
2022-08-31T04:02:35.491Z,17.09
2022-08-31T04:03:30.429Z,17.06
2022-08-31T04:04:30.418Z,17.02
2022-08-31T04:05:30.412Z,17.01
2022-08-31T04:06:30.382Z,17.01
2022-08-31T04:07:30.371Z,17.01
2022-08-31T04:08:30.406Z,17.02
2022-08-31T04:09:30.343Z,17.04
2022-08-31T04:10:30.324Z,17.02
2022-08-31T04:11:44.828Z,16.98
2022-08-31T04:12:30.268Z,16.97
2022-08-31T04:13:30.540Z,17.01
2022-08-31T04:14:30.274Z,17.01
2022-08-31T04:15:30.312Z,16.99
2022-08-31T04:16:30.273Z,16.97
2022-08-31T04:17:30.225Z,16.95
2022-08-31T04:18:30.236Z,16.94
2022-08-31T04:19:31.504Z,16.91
2022-08-31T04:20:30.349Z,16.88
2022-08-31T04:21:30.173Z,16.88
2022-08-31T04:22:30.127Z,16.87
2022-08-31T04:23:30.113Z,16.88
2022-08-31T04:24:30.124Z,16.87
2022-08-31T04:25:30.086Z,16.84
2022-08-31T04:26:30.092Z,16.82
2022-08-31T04:27:30.042Z,16.80
2022-08-31T04:28:30.040Z,16.79
2022-08-31T04:29:30.007Z,16.79
2022-08-31T04:30:30.000Z,16.87
2022-08-31T04:31:30.094Z,16.91
2022-08-31T04:32:29.973Z,16.92
2022-08-31T04:33:29.969Z,16.92
2022-08-31T04:34:29.949Z,16.90
2022-08-31T04:35:29.950Z,16.91
2022-08-31T04:36:29.920Z,16.92
2022-08-31T04:37:29.916Z,16.91
2022-08-31T04:38:29.889Z,16.91
2022-08-31T04:39:32.820Z,16.92
2022-08-31T04:40:29.899Z,16.92
2022-08-31T04:41:29.861Z,16.95
2022-08-31T04:42:29.847Z,16.99
2022-08-31T04:43:29.820Z,17.04
2022-08-31T04:44:29.810Z,17.04
2022-08-31T04:45:29.848Z,17.04
2022-08-31T04:46:29.776Z,17.02
2022-08-31T04:47:29.777Z,16.98
2022-08-31T04:48:29.754Z,16.99
2022-08-31T04:49:29.734Z,17.01
2022-08-31T04:50:29.724Z,17.04
2022-08-31T04:51:29.704Z,17.04
2022-08-31T04:52:29.792Z,17.07
2022-08-31T04:53:29.690Z,17.06
2022-08-31T04:54:29.671Z,17.06
2022-08-31T04:55:29.650Z,17.04
2022-08-31T04:56:29.643Z,17.01
2022-08-31T04:57:29.640Z,17.02
2022-08-31T04:58:29.632Z,17.02
2022-08-31T04:59:29.594Z,17.01
2022-08-31T05:00:29.586Z,17.01
2022-08-31T05:01:29.623Z,17.02
2022-08-31T05:02:29.625Z,16.99
2022-08-31T05:03:29.544Z,17.01
2022-08-31T05:04:29.530Z,16.99
2022-08-31T05:05:29.517Z,16.98
2022-08-31T05:06:29.514Z,16.99
2022-08-31T05:07:29.499Z,16.95
2022-08-31T05:08:29.483Z,16.95
2022-08-31T05:09:29.466Z,16.95
2022-08-31T05:10:29.515Z,16.95
2022-08-31T05:11:29.432Z,16.98
2022-08-31T05:12:29.451Z,16.99
2022-08-31T05:13:29.424Z,17.04
2022-08-31T05:14:29.395Z,17.07
2022-08-31T05:15:29.383Z,17.10
2022-08-31T05:16:29.446Z,17.12
2022-08-31T05:17:29.364Z,17.10
2022-08-31T05:18:29.341Z,17.13
2022-08-31T05:19:29.323Z,17.14
2022-08-31T05:20:29.318Z,17.16
2022-08-31T05:21:29.306Z,17.17
2022-08-31T05:22:29.564Z,17.22
2022-08-31T05:23:29.275Z,17.25
2022-08-31T05:24:29.270Z,17.25
2022-08-31T05:25:29.241Z,17.27
2022-08-31T05:26:29.237Z,17.30
2022-08-31T05:27:29.538Z,17.32
2022-08-31T05:28:29.221Z,17.34
2022-08-31T05:29:29.186Z,17.35
2022-08-31T05:30:29.178Z,17.38
2022-08-31T05:31:29.285Z,17.39
2022-08-31T05:32:29.151Z,17.41
2022-08-31T05:33:29.162Z,17.45
2022-08-31T05:34:29.128Z,17.49
2022-08-31T05:35:29.110Z,17.52
2022-08-31T05:36:29.118Z,17.52
2022-08-31T05:37:29.077Z,17.53
2022-08-31T05:38:29.082Z,17.54
2022-08-31T05:39:29.086Z,17.57
2022-08-31T05:40:29.159Z,17.57
2022-08-31T05:41:29.030Z,17.57
2022-08-31T05:42:29.013Z,17.57
2022-08-31T05:43:29.020Z,17.59
2022-08-31T05:44:29.528Z,17.62
2022-08-31T05:45:28.974Z,17.65
2022-08-31T05:46:29.039Z,17.66
2022-08-31T05:47:28.942Z,17.65
2022-08-31T05:48:29.970Z,17.68
2022-08-31T05:49:28.933Z,17.66
2022-08-31T05:50:28.913Z,17.69
2022-08-31T05:51:28.882Z,17.72
2022-08-31T05:52:28.902Z,17.75
2022-08-31T05:53:28.857Z,17.78
2022-08-31T05:54:34.879Z,17.78
2022-08-31T05:55:28.870Z,17.79
2022-08-31T05:56:28.819Z,17.81
2022-08-31T05:57:28.827Z,17.83
2022-08-31T05:58:28.800Z,17.81
2022-08-31T05:59:28.793Z,17.86
2022-08-31T06:00:28.882Z,17.90
2022-08-31T06:01:28.812Z,17.90
2022-08-31T06:02:29.417Z,17.91
2022-08-31T06:03:28.781Z,17.93
2022-08-31T06:04:28.753Z,17.93
2022-08-31T06:05:28.758Z,17.94
2022-08-31T06:06:28.679Z,17.93
2022-08-31T06:07:28.667Z,17.93
2022-08-31T06:08:28.677Z,17.94
2022-08-31T06:09:28.640Z,17.91
2022-08-31T06:10:28.721Z,17.91
2022-08-31T06:11:28.609Z,17.90
2022-08-31T06:12:28.611Z,17.90
2022-08-31T06:13:28.629Z,17.91
2022-08-31T06:14:28.571Z,17.93
2022-08-31T06:15:28.557Z,17.91
2022-08-31T06:16:28.615Z,17.91
2022-08-31T06:17:28.549Z,17.91
2022-08-31T06:18:28.521Z,17.90
2022-08-31T06:19:28.501Z,17.90
2022-08-31T06:20:28.517Z,17.91
2022-08-31T06:21:28.549Z,17.93
2022-08-31T06:22:28.527Z,17.99
2022-08-31T06:23:28.443Z,17.99
2022-08-31T06:24:28.438Z,17.99
2022-08-31T06:25:28.424Z,17.99
2022-08-31T06:26:28.439Z,17.97
2022-08-31T06:27:28.411Z,17.97
2022-08-31T06:28:28.381Z,17.96
2022-08-31T06:29:28.365Z,17.96
2022-08-31T06:30:28.410Z,17.96
2022-08-31T06:31:28.379Z,17.94
2022-08-31T06:32:28.372Z,17.94
2022-08-31T06:33:28.347Z,17.97
2022-08-31T06:34:28.300Z,17.99
2022-08-31T06:35:28.286Z,18.01
2022-08-31T06:36:28.292Z,18.01
2022-08-31T06:37:28.301Z,18.02
2022-08-31T06:38:28.245Z,18.02
2022-08-31T06:39:28.293Z,18.05
2022-08-31T06:40:28.329Z,18.05
2022-08-31T06:41:28.194Z,18.06
2022-08-31T06:42:28.304Z,18.09
2022-08-31T06:43:28.169Z,18.08
2022-08-31T06:44:28.197Z,18.11
2022-08-31T06:45:28.143Z,18.11
2022-08-31T06:46:28.223Z,18.08
2022-08-31T06:47:28.131Z,18.09
2022-08-31T06:48:28.108Z,18.08
2022-08-31T06:49:28.091Z,18.06
2022-08-31T06:50:28.090Z,18.06
2022-08-31T06:51:28.473Z,18.09
2022-08-31T06:52:29.008Z,18.09
2022-08-31T06:53:28.603Z,18.09
2022-08-31T06:54:29.746Z,18.13
2022-08-31T06:55:28.202Z,18.13
2022-08-31T06:56:28.092Z,18.15
2022-08-31T06:57:28.067Z,18.17
2022-08-31T06:58:28.055Z,18.18
2022-08-31T06:59:29.502Z,18.18
2022-08-31T07:00:27.944Z,18.20
2022-08-31T07:01:35.288Z,18.21
2022-08-31T07:02:27.976Z,18.24
2022-08-31T07:03:27.902Z,18.24
2022-08-31T07:04:27.895Z,18.27
2022-08-31T07:05:27.870Z,18.27
2022-08-31T07:06:27.861Z,18.30
2022-08-31T07:07:27.863Z,18.30
2022-08-31T07:08:27.858Z,18.28
2022-08-31T07:09:27.813Z,18.30
2022-08-31T07:10:27.806Z,18.31
2022-08-31T07:11:27.790Z,18.31
2022-08-31T07:12:27.799Z,18.31
2022-08-31T07:13:27.764Z,18.33
2022-08-31T07:14:27.895Z,18.31
2022-08-31T07:15:27.739Z,18.33
2022-08-31T07:16:27.957Z,18.33
2022-08-31T07:17:27.713Z,18.38
2022-08-31T07:18:27.809Z,18.39
2022-08-31T07:19:27.686Z,18.42
2022-08-31T07:20:27.678Z,18.43
2022-08-31T07:21:27.671Z,18.48
2022-08-31T07:22:27.646Z,18.51
2022-08-31T07:23:27.631Z,18.54
2022-08-31T07:24:27.618Z,18.57
2022-08-31T07:25:27.602Z,18.61
2022-08-31T07:26:27.607Z,18.67
2022-08-31T07:27:27.572Z,18.71
2022-08-31T07:28:27.562Z,18.75
2022-08-31T07:29:27.541Z,18.79
2022-08-31T07:30:33.241Z,18.82
2022-08-31T07:31:27.606Z,18.88
2022-08-31T07:32:27.509Z,18.91
2022-08-31T07:33:27.492Z,18.89
2022-08-31T07:34:27.482Z,18.97
2022-08-31T07:35:27.464Z,19.04
2022-08-31T07:36:27.476Z,19.05
2022-08-31T07:37:27.441Z,19.09
2022-08-31T07:38:27.444Z,19.12
2022-08-31T07:39:27.423Z,19.17
2022-08-31T07:40:27.468Z,19.22
2022-08-31T07:41:27.402Z,19.24
2022-08-31T07:42:27.374Z,19.32
2022-08-31T07:43:27.361Z,19.38
2022-08-31T07:44:27.355Z,19.49
2022-08-31T07:45:30.154Z,19.59
2022-08-31T07:46:27.402Z,19.71
2022-08-31T07:47:27.314Z,19.81
2022-08-31T07:48:27.302Z,19.86
2022-08-31T07:49:27.274Z,19.93
2022-08-31T07:50:27.271Z,19.93
2022-08-31T07:51:27.278Z,19.99
2022-08-31T07:52:27.241Z,20.05
2022-08-31T07:53:27.225Z,20.09
2022-08-31T07:54:28.219Z,20.15
2022-08-31T07:55:27.201Z,20.25
2022-08-31T07:56:27.211Z,20.26
2022-08-31T07:57:27.169Z,20.30
2022-08-31T07:58:27.166Z,20.29
2022-08-31T07:59:27.160Z,20.33
2022-08-31T08:00:27.138Z,20.37
2022-08-31T08:01:27.166Z,20.41
2022-08-31T08:02:27.200Z,20.44
2022-08-31T08:03:27.096Z,20.46
2022-08-31T08:04:27.088Z,20.48
2022-08-31T08:05:28.829Z,20.42
2022-08-31T08:06:27.078Z,20.42
2022-08-31T08:07:27.048Z,20.44
2022-08-31T08:08:27.025Z,20.46
2022-08-31T08:09:27.101Z,20.50
2022-08-31T08:10:27.013Z,20.50
2022-08-31T08:11:27.000Z,20.48
2022-08-31T08:12:26.974Z,20.55
2022-08-31T08:13:26.958Z,20.61
2022-08-31T08:14:26.954Z,20.67
2022-08-31T08:15:26.949Z,20.71
2022-08-31T08:16:27.023Z,20.79
2022-08-31T08:17:26.906Z,20.86
2022-08-31T08:18:26.899Z,20.95
2022-08-31T08:19:26.883Z,21.00
2022-08-31T08:20:34.301Z,21.01
2022-08-31T08:21:26.878Z,21.10
2022-08-31T08:22:51.045Z,21.18
2022-08-31T08:23:28.862Z,21.19
2022-08-31T08:24:26.816Z,21.18
2022-08-31T08:25:26.921Z,21.23
2022-08-31T08:26:26.819Z,21.28
2022-08-31T08:27:26.778Z,21.26
2022-08-31T08:28:39.043Z,21.26
2022-08-31T08:29:26.756Z,21.30
2022-08-31T08:30:26.737Z,21.40
2022-08-31T08:31:26.791Z,21.53
2022-08-31T08:32:26.709Z,21.66
2022-08-31T08:33:26.698Z,21.81
2022-08-31T08:34:32.484Z,21.94
2022-08-31T08:35:26.685Z,22.11
2022-08-31T08:36:26.677Z,22.38
2022-08-31T08:37:47.417Z,22.88
2022-08-31T08:38:26.633Z,23.36
2022-08-31T08:39:26.652Z,23.86
2022-08-31T08:40:26.711Z,24.28
2022-08-31T08:41:26.630Z,24.85
2022-08-31T08:42:26.582Z,25.19
2022-08-31T08:43:30.765Z,25.15
2022-08-31T08:44:26.551Z,25.19
2022-08-31T08:45:26.700Z,25.61
2022-08-31T08:47:27.199Z,25.90
2022-08-31T08:47:42.733Z,26.12
2022-08-31T08:48:26.492Z,26.48
2022-08-31T08:49:26.485Z,26.64
2022-08-31T08:50:26.506Z,26.53
2022-08-31T08:51:26.540Z,26.31
2022-08-31T08:52:26.443Z,25.83
2022-08-31T08:53:26.433Z,25.30
2022-08-31T08:54:26.416Z,25.36
2022-08-31T08:55:26.411Z,25.22
2022-08-31T08:56:33.249Z,25.21
2022-08-31T08:57:26.390Z,24.79
2022-08-31T08:58:26.361Z,24.53
2022-08-31T08:59:26.352Z,24.33
2022-08-31T09:00:26.341Z,24.07
2022-08-31T09:01:26.449Z,23.60
2022-08-31T09:02:26.399Z,23.18
2022-08-31T09:03:26.737Z,23.28
2022-08-31T09:04:26.291Z,23.44
2022-08-31T09:05:26.310Z,23.64
2022-08-31T09:06:26.312Z,23.89
2022-08-31T09:07:26.254Z,24.26
2022-08-31T09:08:26.233Z,24.96
2022-08-31T09:09:26.225Z,25.38
2022-08-31T09:10:26.208Z,25.56
2022-08-31T09:11:26.223Z,25.36
2022-08-31T09:12:26.189Z,25.46
2022-08-31T09:13:26.177Z,25.82
2022-08-31T09:14:26.160Z,26.16
2022-08-31T09:15:26.832Z,26.56
2022-08-31T09:16:26.349Z,27.04
2022-08-31T09:17:26.126Z,27.05
2022-08-31T09:18:26.149Z,27.12
2022-08-31T09:19:26.124Z,27.41
2022-08-31T09:20:26.084Z,27.68
2022-08-31T09:21:26.097Z,27.91
2022-08-31T09:22:26.051Z,27.85
2022-08-31T09:23:26.050Z,28.01
2022-08-31T09:24:26.069Z,27.93
2022-08-31T09:25:26.021Z,28.03
2022-08-31T09:26:26.039Z,28.31
2022-08-31T09:27:25.997Z,28.47
2022-08-31T09:28:25.986Z,28.71
2022-08-31T09:29:25.971Z,28.28
2022-08-31T09:30:25.954Z,27.91
2022-08-31T09:31:26.051Z,27.60
2022-08-31T09:32:26.476Z,27.60
2022-08-31T09:33:25.919Z,27.83
2022-08-31T09:34:25.904Z,27.91
2022-08-31T09:35:25.894Z,27.58
2022-08-31T09:36:25.893Z,26.64
2022-08-31T09:37:25.896Z,26.20
2022-08-31T09:38:25.851Z,26.26
2022-08-31T09:39:25.840Z,26.65
2022-08-31T09:40:25.901Z,27.03
2022-08-31T09:41:25.851Z,27.16
2022-08-31T09:42:25.831Z,27.58
2022-08-31T09:43:25.811Z,27.22
2022-08-31T09:44:25.778Z,27.30
2022-08-31T09:45:25.821Z,27.69
2022-08-31T09:46:25.865Z,28.07
2022-08-31T09:47:25.770Z,28.16
2022-08-31T09:48:25.738Z,28.43
2022-08-31T09:49:25.716Z,28.69
2022-08-31T09:50:25.732Z,29.02
2022-08-31T09:51:25.723Z,28.93
2022-08-31T09:52:25.683Z,28.86
2022-08-31T09:53:25.673Z,28.79
2022-08-31T09:54:25.661Z,28.96
2022-08-31T09:55:25.647Z,29.17
2022-08-31T09:56:25.646Z,28.94
2022-08-31T09:57:25.653Z,28.66
2022-08-31T09:58:25.604Z,28.74
2022-08-31T09:59:25.591Z,29.09
2022-08-31T10:00:25.596Z,29.50
2022-08-31T10:01:25.643Z,29.44
2022-08-31T10:02:25.574Z,28.81
2022-08-31T10:03:25.545Z,28.27
2022-08-31T10:04:25.548Z,27.08
2022-08-31T10:05:25.622Z,26.49
2022-08-31T10:06:25.547Z,26.21
2022-08-31T10:07:25.495Z,25.85
2022-08-31T10:08:25.476Z,25.89
2022-08-31T10:09:25.482Z,26.19
2022-08-31T10:10:30.543Z,26.58
2022-08-31T10:11:25.467Z,26.52
2022-08-31T10:12:25.425Z,26.79
2022-08-31T10:13:25.422Z,26.89
2022-08-31T10:14:25.413Z,26.89
2022-08-31T10:15:25.407Z,26.75
2022-08-31T10:16:25.504Z,26.82
2022-08-31T10:17:25.373Z,26.73
2022-08-31T10:18:25.354Z,26.65
2022-08-31T10:19:25.355Z,26.42
2022-08-31T10:20:28.506Z,26.45
2022-08-31T10:21:25.341Z,26.52
2022-08-31T10:22:25.330Z,26.45
2022-08-31T10:23:25.297Z,26.64
2022-08-31T10:24:25.276Z,26.61
2022-08-31T10:25:25.266Z,26.53
2022-08-31T10:26:25.272Z,26.61
2022-08-31T10:27:25.244Z,26.58
2022-08-31T10:28:25.224Z,26.42
2022-08-31T10:29:25.217Z,26.61
2022-08-31T10:30:25.203Z,26.94
2022-08-31T10:31:25.353Z,26.78
2022-08-31T10:32:25.213Z,26.15
2022-08-31T10:33:25.249Z,25.77
2022-08-31T10:34:25.172Z,25.75
2022-08-31T10:35:25.145Z,25.90
2022-08-31T10:36:25.142Z,25.86
2022-08-31T10:37:25.125Z,26.04
2022-08-31T10:38:25.139Z,26.46
2022-08-31T10:39:25.088Z,26.51
2022-08-31T10:40:25.125Z,26.52
2022-08-31T10:41:25.069Z,26.23
2022-08-31T10:42:25.045Z,25.92
2022-08-31T10:43:25.064Z,25.88
2022-08-31T10:44:25.042Z,26.03
2022-08-31T10:45:25.040Z,25.88
2022-08-31T10:46:25.104Z,25.64
2022-08-31T10:47:33.831Z,25.55
2022-08-31T10:48:24.976Z,25.49
2022-08-31T10:49:24.957Z,25.43
2022-08-31T10:50:25.019Z,25.23
2022-08-31T10:51:24.934Z,25.30
2022-08-31T10:52:24.918Z,25.27
2022-08-31T10:53:24.927Z,25.06
2022-08-31T10:54:24.909Z,25.11
2022-08-31T10:55:24.897Z,25.08
2022-08-31T10:56:24.866Z,25.04
2022-08-31T10:57:26.183Z,24.71
2022-08-31T10:58:24.850Z,24.55
2022-08-31T10:59:24.840Z,24.47
2022-08-31T11:00:24.823Z,24.40
2022-08-31T11:01:24.918Z,24.43
2022-08-31T11:02:24.786Z,24.52
2022-08-31T11:03:24.855Z,24.62
2022-08-31T11:04:24.816Z,24.76
2022-08-31T11:05:24.773Z,24.75
2022-08-31T11:06:24.740Z,24.89
2022-08-31T11:07:24.727Z,24.99
2022-08-31T11:08:24.712Z,24.96
2022-08-31T11:09:24.726Z,24.99
2022-08-31T11:10:24.700Z,24.93
2022-08-31T11:11:24.672Z,24.75
2022-08-31T11:12:24.671Z,24.63
2022-08-31T11:13:24.647Z,24.51
2022-08-31T11:14:24.634Z,24.53
2022-08-31T11:15:24.664Z,24.55
2022-08-31T11:16:24.680Z,24.56
2022-08-31T11:17:24.607Z,24.75
2022-08-31T11:18:24.609Z,24.78
2022-08-31T11:19:24.588Z,24.91
2022-08-31T11:20:24.570Z,24.94
2022-08-31T11:21:24.564Z,24.89
2022-08-31T11:22:24.531Z,24.85
2022-08-31T11:23:24.528Z,24.79
2022-08-31T11:24:24.508Z,24.75
2022-08-31T11:25:24.540Z,24.65
2022-08-31T11:26:24.502Z,24.45
2022-08-31T11:27:24.565Z,24.40
2022-08-31T11:28:25.257Z,24.45
2022-08-31T11:29:24.446Z,24.43
2022-08-31T11:30:24.613Z,24.53
2022-08-31T11:31:24.563Z,24.68
2022-08-31T11:32:24.421Z,24.66
2022-08-31T11:33:24.384Z,24.65
2022-08-31T11:34:24.395Z,24.56
2022-08-31T11:35:24.370Z,24.59
2022-08-31T11:36:24.338Z,24.59
2022-08-31T11:37:24.340Z,24.66
2022-08-31T11:38:24.318Z,24.68
2022-08-31T11:39:24.331Z,24.65
2022-08-31T11:40:24.345Z,24.70
2022-08-31T11:41:24.297Z,24.84
2022-08-31T11:42:24.260Z,25.03
2022-08-31T11:43:24.254Z,25.28
2022-08-31T11:44:24.241Z,25.43
2022-08-31T11:45:24.239Z,25.51
2022-08-31T11:46:24.272Z,25.70
2022-08-31T11:47:24.239Z,25.86
2022-08-31T11:48:24.208Z,26.03
2022-08-31T11:49:24.186Z,26.45
2022-08-31T11:50:24.197Z,26.61
2022-08-31T11:51:24.146Z,26.52
2022-08-31T11:52:24.141Z,25.98
2022-08-31T11:53:24.122Z,25.64
2022-08-31T11:54:24.137Z,25.49
2022-08-31T11:55:24.129Z,25.28
2022-08-31T11:56:24.112Z,25.11
2022-08-31T11:57:24.070Z,25.12
2022-08-31T11:58:24.058Z,25.11
2022-08-31T11:59:24.044Z,25.12
2022-08-31T12:00:24.073Z,25.16
2022-08-31T12:01:24.034Z,25.12
2022-08-31T12:02:24.115Z,25.08
2022-08-31T12:03:23.994Z,24.99
2022-08-31T12:04:24.004Z,24.93
2022-08-31T12:05:24.054Z,24.84
2022-08-31T12:06:23.962Z,24.78
2022-08-31T12:07:23.951Z,24.76
2022-08-31T12:08:23.923Z,24.70
2022-08-31T12:09:23.919Z,24.59
2022-08-31T12:10:27.211Z,24.56
2022-08-31T12:11:23.920Z,24.59
2022-08-31T12:12:23.879Z,24.58
2022-08-31T12:13:23.879Z,24.59
2022-08-31T12:14:23.849Z,24.56
2022-08-31T12:15:23.876Z,24.53
2022-08-31T12:16:23.867Z,24.55
2022-08-31T12:17:23.813Z,24.58
2022-08-31T12:18:23.803Z,24.52
2022-08-31T12:19:23.796Z,24.44
2022-08-31T12:20:23.876Z,24.38
2022-08-31T12:21:23.762Z,24.29
2022-08-31T12:22:23.740Z,24.13
2022-08-31T12:23:31.011Z,23.96
2022-08-31T12:24:23.736Z,23.55
2022-08-31T12:25:23.749Z,23.17
2022-08-31T12:26:23.691Z,22.92
2022-08-31T12:27:23.677Z,22.64
2022-08-31T12:28:29.258Z,22.36
2022-08-31T12:29:23.689Z,22.00
2022-08-31T12:30:23.776Z,21.66
2022-08-31T12:31:23.721Z,21.29
2022-08-31T12:32:23.615Z,21.07
2022-08-31T12:33:23.613Z,20.93
2022-08-31T12:34:23.743Z,20.68
2022-08-31T12:35:23.616Z,20.44
2022-08-31T12:36:23.570Z,20.17
2022-08-31T12:37:23.552Z,19.99
2022-08-31T12:38:23.540Z,19.82
2022-08-31T12:39:23.533Z,19.74
2022-08-31T12:40:23.592Z,19.68
2022-08-31T12:41:25.538Z,19.54
2022-08-31T12:42:23.478Z,19.53
2022-08-31T12:43:23.496Z,19.49
2022-08-31T12:44:23.459Z,19.47
2022-08-31T12:45:23.459Z,19.44
2022-08-31T12:46:23.452Z,19.39
2022-08-31T12:47:24.247Z,19.38
2022-08-31T12:48:23.401Z,19.39
2022-08-31T12:49:23.401Z,19.42
2022-08-31T12:50:23.445Z,19.41
2022-08-31T12:51:23.358Z,19.38
2022-08-31T12:52:23.349Z,19.35